sensor_id;sensor_type;location;lat;lon;timestamp;P1;durP1;ratioP1;P2;durP2;ratioP2
71790;SDS011;59638;52.126;5.434;2023-08-21T00:02:09;4.53;;;1.50;;
71790;SDS011;59638;52.126;5.434;2023-08-21T00:04:36;1.60;;;0.80;;
71790;SDS011;59638;52.126;5.434;2023-08-21T00:07:02;3.93;;;0.87;;
71790;SDS011;59638;52.126;5.434;2023-08-21T00:09:29;10.07;;;1.27;;
71790;SDS011;59638;52.126;5.434;2023-08-21T00:11:55;5.72;;;1.25;;
71790;SDS011;59638;52.126;5.434;2023-08-21T00:14:21;2.70;;;1.23;;
71790;SDS011;59638;52.126;5.434;2023-08-21T00:16:48;3.22;;;1.23;;
71790;SDS011;59638;52.126;5.434;2023-08-21T00:19:15;3.13;;;1.13;;
71790;SDS011;59638;52.126;5.434;2023-08-21T00:21:41;2.00;;;1.00;;
71790;SDS011;59638;52.126;5.434;2023-08-21T00:24:08;5.57;;;1.52;;
71790;SDS011;59638;52.126;5.434;2023-08-21T00:26:34;5.55;;;1.23;;
71790;SDS011;59638;52.126;5.434;2023-08-21T00:29:01;4.80;;;0.95;;
71790;SDS011;59638;52.126;5.434;2023-08-21T00:31:27;10.13;;;1.57;;
71790;SDS011;59638;52.126;5.434;2023-08-21T00:33:54;2.25;;;1.13;;
71790;SDS011;59638;52.126;5.434;2023-08-21T00:36:20;3.65;;;1.40;;
71790;SDS011;59638;52.126;5.434;2023-08-21T00:38:47;4.05;;;1.45;;
71790;SDS011;59638;52.126;5.434;2023-08-21T00:41:14;2.45;;;0.95;;
71790;SDS011;59638;52.126;5.434;2023-08-21T00:43:40;3.53;;;0.83;;
71790;SDS011;59638;52.126;5.434;2023-08-21T00:46:07;2.15;;;0.82;;
71790;SDS011;59638;52.126;5.434;2023-08-21T00:48:34;3.00;;;1.15;;
71790;SDS011;59638;52.126;5.434;2023-08-21T00:51:00;4.93;;;1.08;;
71790;SDS011;59638;52.126;5.434;2023-08-21T00:53:27;3.22;;;1.02;;
71790;SDS011;59638;52.126;5.434;2023-08-21T00:55:54;2.97;;;0.73;;
71790;SDS011;59638;52.126;5.434;2023-08-21T00:58:21;1.88;;;0.60;;
71790;SDS011;59638;52.126;5.434;2023-08-21T01:00:49;2.10;;;0.70;;
71790;SDS011;59638;52.126;5.434;2023-08-21T01:03:18;5.72;;;1.00;;
71790;SDS011;59638;52.126;5.434;2023-08-21T01:05:44;2.67;;;0.80;;
71790;SDS011;59638;52.126;5.434;2023-08-21T01:08:14;4.70;;;1.10;;
71790;SDS011;59638;52.126;5.434;2023-08-21T01:13:36;3.65;;;0.80;;
71790;SDS011;59638;52.126;5.434;2023-08-21T01:16:13;4.45;;;1.15;;
71790;SDS011;59638;52.126;5.434;2023-08-21T01:18:40;4.97;;;0.85;;
71790;SDS011;59638;52.126;5.434;2023-08-21T01:21:09;3.40;;;0.83;;
71790;SDS011;59638;52.126;5.434;2023-08-21T01:23:37;2.75;;;0.88;;
71790;SDS011;59638;52.126;5.434;2023-08-21T01:26:04;2.65;;;1.00;;
71790;SDS011;59638;52.126;5.434;2023-08-21T01:28:31;4.05;;;1.17;;
71790;SDS011;59638;52.126;5.434;2023-08-21T01:31:04;2.42;;;0.85;;
71790;SDS011;59638;52.126;5.434;2023-08-21T01:33:35;4.63;;;1.00;;
71790;SDS011;59638;52.126;5.434;2023-08-21T01:36:07;1.98;;;1.00;;
71790;SDS011;59638;52.126;5.434;2023-08-21T01:38:34;3.28;;;1.00;;
71790;SDS011;59638;52.126;5.434;2023-08-21T01:41:01;5.97;;;0.80;;
71790;SDS011;59638;52.126;5.434;2023-08-21T01:43:28;5.28;;;1.08;;
71790;SDS011;59638;52.126;5.434;2023-08-21T01:45:55;4.33;;;0.77;;
71790;SDS011;59638;52.126;5.434;2023-08-21T01:48:22;3.85;;;0.65;;
71790;SDS011;59638;52.126;5.434;2023-08-21T01:50:48;5.40;;;0.88;;
71790;SDS011;59638;52.126;5.434;2023-08-21T01:53:15;6.43;;;1.08;;
71790;SDS011;59638;52.126;5.434;2023-08-21T01:55:41;5.65;;;0.70;;
71790;SDS011;59638;52.126;5.434;2023-08-21T01:58:08;4.27;;;1.03;;
71790;SDS011;59638;52.126;5.434;2023-08-21T02:00:34;2.50;;;0.65;;
71790;SDS011;59638;52.126;5.434;2023-08-21T02:03:01;4.13;;;0.90;;
71790;SDS011;59638;52.126;5.434;2023-08-21T02:05:27;1.50;;;0.68;;
71790;SDS011;59638;52.126;5.434;2023-08-21T02:07:54;2.40;;;0.95;;
71790;SDS011;59638;52.126;5.434;2023-08-21T02:10:20;4.53;;;0.67;;
71790;SDS011;59638;52.126;5.434;2023-08-21T02:12:47;2.88;;;1.15;;
71790;SDS011;59638;52.126;5.434;2023-08-21T02:15:15;4.22;;;0.90;;
71790;SDS011;59638;52.126;5.434;2023-08-21T02:17:41;2.42;;;0.68;;
71790;SDS011;59638;52.126;5.434;2023-08-21T02:20:09;1.75;;;0.60;;
71790;SDS011;59638;52.126;5.434;2023-08-21T02:22:36;2.83;;;0.60;;
71790;SDS011;59638;52.126;5.434;2023-08-21T02:25:03;2.20;;;0.50;;
71790;SDS011;59638;52.126;5.434;2023-08-21T02:27:29;3.28;;;0.80;;
71790;SDS011;59638;52.126;5.434;2023-08-21T02:29:56;2.63;;;0.80;;
71790;SDS011;59638;52.126;5.434;2023-08-21T02:32:22;3.03;;;0.70;;
71790;SDS011;59638;52.126;5.434;2023-08-21T02:34:49;6.30;;;0.90;;
71790;SDS011;59638;52.126;5.434;2023-08-21T02:37:15;1.85;;;0.68;;
71790;SDS011;59638;52.126;5.434;2023-08-21T02:39:42;4.68;;;0.80;;
71790;SDS011;59638;52.126;5.434;2023-08-21T02:42:08;5.68;;;0.73;;
71790;SDS011;59638;52.126;5.434;2023-08-21T02:44:34;3.40;;;0.88;;
71790;SDS011;59638;52.126;5.434;2023-08-21T02:47:01;1.77;;;1.00;;
71790;SDS011;59638;52.126;5.434;2023-08-21T02:49:27;1.35;;;0.80;;
71790;SDS011;59638;52.126;5.434;2023-08-21T02:51:54;4.38;;;0.40;;
71790;SDS011;59638;52.126;5.434;2023-08-21T02:54:20;2.47;;;0.50;;
71790;SDS011;59638;52.126;5.434;2023-08-21T02:56:47;1.92;;;0.60;;
71790;SDS011;59638;52.126;5.434;2023-08-21T02:59:14;5.03;;;0.77;;
71790;SDS011;59638;52.126;5.434;2023-08-21T03:01:40;2.97;;;0.88;;
71790;SDS011;59638;52.126;5.434;2023-08-21T03:04:07;1.55;;;0.60;;
71790;SDS011;59638;52.126;5.434;2023-08-21T03:06:33;2.72;;;0.90;;
71790;SDS011;59638;52.126;5.434;2023-08-21T03:09:00;3.05;;;1.00;;
71790;SDS011;59638;52.126;5.434;2023-08-21T03:11:26;3.07;;;0.63;;
71790;SDS011;59638;52.126;5.434;2023-08-21T03:13:53;5.97;;;0.60;;
71790;SDS011;59638;52.126;5.434;2023-08-21T03:16:20;2.78;;;0.52;;
71790;SDS011;59638;52.126;5.434;2023-08-21T03:18:59;4.68;;;0.60;;
71790;SDS011;59638;52.126;5.434;2023-08-21T03:21:27;1.77;;;0.50;;
71790;SDS011;59638;52.126;5.434;2023-08-21T03:23:57;1.10;;;0.30;;
71790;SDS011;59638;52.126;5.434;2023-08-21T03:26:29;2.17;;;0.68;;
71790;SDS011;59638;52.126;5.434;2023-08-21T03:28:55;5.97;;;0.88;;
71790;SDS011;59638;52.126;5.434;2023-08-21T03:31:22;2.28;;;0.68;;
71790;SDS011;59638;52.126;5.434;2023-08-21T03:33:48;4.03;;;0.90;;
71790;SDS011;59638;52.126;5.434;2023-08-21T03:36:15;2.30;;;0.37;;
71790;SDS011;59638;52.126;5.434;2023-08-21T03:38:41;4.20;;;0.70;;
71790;SDS011;59638;52.126;5.434;2023-08-21T03:41:08;4.25;;;0.77;;
71790;SDS011;59638;52.126;5.434;2023-08-21T03:43:35;1.60;;;0.80;;
71790;SDS011;59638;52.126;5.434;2023-08-21T03:46:01;2.40;;;0.70;;
71790;SDS011;59638;52.126;5.434;2023-08-21T03:48:28;4.50;;;1.00;;
71790;SDS011;59638;52.126;5.434;2023-08-21T03:50:54;2.47;;;0.65;;
71790;SDS011;59638;52.126;5.434;2023-08-21T03:53:21;3.72;;;0.70;;
71790;SDS011;59638;52.126;5.434;2023-08-21T03:55:47;1.77;;;0.52;;
71790;SDS011;59638;52.126;5.434;2023-08-21T03:58:14;2.72;;;1.08;;
71790;SDS011;59638;52.126;5.434;2023-08-21T04:00:41;2.70;;;0.63;;
71790;SDS011;59638;52.126;5.434;2023-08-21T04:03:07;2.15;;;0.80;;
71790;SDS011;59638;52.126;5.434;2023-08-21T04:05:34;6.68;;;1.73;;
71790;SDS011;59638;52.126;5.434;2023-08-21T04:08:00;2.60;;;0.85;;
71790;SDS011;59638;52.126;5.434;2023-08-21T04:10:27;2.20;;;0.47;;
71790;SDS011;59638;52.126;5.434;2023-08-21T04:12:53;3.27;;;0.63;;
71790;SDS011;59638;52.126;5.434;2023-08-21T04:15:20;1.42;;;0.47;;
71790;SDS011;59638;52.126;5.434;2023-08-21T04:17:46;3.97;;;1.00;;
71790;SDS011;59638;52.126;5.434;2023-08-21T04:20:13;1.33;;;0.60;;
71790;SDS011;59638;52.126;5.434;2023-08-21T04:22:39;1.98;;;1.00;;
71790;SDS011;59638;52.126;5.434;2023-08-21T04:25:06;3.73;;;0.70;;
71790;SDS011;59638;52.126;5.434;2023-08-21T04:27:33;2.40;;;0.55;;
71790;SDS011;59638;52.126;5.434;2023-08-21T04:30:00;4.30;;;0.73;;
71790;SDS011;59638;52.126;5.434;2023-08-21T04:32:27;4.95;;;0.63;;
71790;SDS011;59638;52.126;5.434;2023-08-21T04:34:54;2.78;;;0.77;;
71790;SDS011;59638;52.126;5.434;2023-08-21T04:37:20;3.90;;;0.97;;
71790;SDS011;59638;52.126;5.434;2023-08-21T04:39:50;2.03;;;0.70;;
71790;SDS011;59638;52.126;5.434;2023-08-21T04:42:17;2.28;;;0.40;;
71790;SDS011;59638;52.126;5.434;2023-08-21T04:44:44;1.65;;;1.13;;
71790;SDS011;59638;52.126;5.434;2023-08-21T04:47:18;2.88;;;0.52;;
71790;SDS011;59638;52.126;5.434;2023-08-21T04:49:54;4.53;;;1.00;;
71790;SDS011;59638;52.126;5.434;2023-08-21T04:52:21;5.13;;;0.93;;
71790;SDS011;59638;52.126;5.434;2023-08-21T04:54:48;2.15;;;0.88;;
71790;SDS011;59638;52.126;5.434;2023-08-21T04:57:15;1.70;;;0.80;;
71790;SDS011;59638;52.126;5.434;2023-08-21T04:59:43;4.95;;;1.00;;
71790;SDS011;59638;52.126;5.434;2023-08-21T05:02:10;5.47;;;0.70;;
71790;SDS011;59638;52.126;5.434;2023-08-21T05:04:36;4.90;;;0.80;;
71790;SDS011;59638;52.126;5.434;2023-08-21T05:07:03;3.33;;;0.70;;
71790;SDS011;59638;52.126;5.434;2023-08-21T05:09:33;3.53;;;0.65;;
71790;SDS011;59638;52.126;5.434;2023-08-21T05:12:00;2.05;;;0.45;;
71790;SDS011;59638;52.126;5.434;2023-08-21T05:14:26;1.93;;;0.70;;
71790;SDS011;59638;52.126;5.434;2023-08-21T05:16:53;3.28;;;0.70;;
71790;SDS011;59638;52.126;5.434;2023-08-21T05:19:19;3.58;;;0.70;;
71790;SDS011;59638;52.126;5.434;2023-08-21T05:21:46;2.70;;;0.60;;
71790;SDS011;59638;52.126;5.434;2023-08-21T05:24:12;1.42;;;0.73;;
71790;SDS011;59638;52.126;5.434;2023-08-21T05:26:39;1.30;;;0.63;;
71790;SDS011;59638;52.126;5.434;2023-08-21T05:29:05;1.60;;;0.60;;
71790;SDS011;59638;52.126;5.434;2023-08-21T05:31:32;3.15;;;0.40;;
71790;SDS011;59638;52.126;5.434;2023-08-21T05:33:59;3.78;;;1.00;;
71790;SDS011;59638;52.126;5.434;2023-08-21T05:36:26;1.92;;;0.50;;
71790;SDS011;59638;52.126;5.434;2023-08-21T05:38:52;5.10;;;1.33;;
71790;SDS011;59638;52.126;5.434;2023-08-21T05:41:19;3.75;;;0.50;;
71790;SDS011;59638;52.126;5.434;2023-08-21T05:43:45;2.85;;;0.65;;
71790;SDS011;59638;52.126;5.434;2023-08-21T05:46:12;1.73;;;0.77;;
71790;SDS011;59638;52.126;5.434;2023-08-21T05:48:38;1.55;;;0.77;;
71790;SDS011;59638;52.126;5.434;2023-08-21T05:51:05;3.70;;;1.07;;
71790;SDS011;59638;52.126;5.434;2023-08-21T05:53:31;2.00;;;1.00;;
71790;SDS011;59638;52.126;5.434;2023-08-21T05:55:58;2.28;;;1.10;;
71790;SDS011;59638;52.126;5.434;2023-08-21T05:58:24;2.40;;;1.40;;
71790;SDS011;59638;52.126;5.434;2023-08-21T06:00:55;3.15;;;1.20;;
71790;SDS011;59638;52.126;5.434;2023-08-21T06:03:22;2.60;;;1.90;;
71790;SDS011;59638;52.126;5.434;2023-08-21T06:05:48;4.65;;;2.03;;
71790;SDS011;59638;52.126;5.434;2023-08-21T06:08:15;2.78;;;2.00;;
71790;SDS011;59638;52.126;5.434;2023-08-21T06:10:41;4.88;;;2.03;;
71790;SDS011;59638;52.126;5.434;2023-08-21T06:13:08;5.38;;;1.95;;
71790;SDS011;59638;52.126;5.434;2023-08-21T06:15:34;4.67;;;1.90;;
71790;SDS011;59638;52.126;5.434;2023-08-21T06:18:01;5.55;;;1.90;;
71790;SDS011;59638;52.126;5.434;2023-08-21T06:20:27;2.22;;;1.33;;
71790;SDS011;59638;52.126;5.434;2023-08-21T06:22:54;4.75;;;1.45;;
71790;SDS011;59638;52.126;5.434;2023-08-21T06:25:20;4.35;;;1.70;;
71790;SDS011;59638;52.126;5.434;2023-08-21T06:27:47;4.70;;;1.90;;
71790;SDS011;59638;52.126;5.434;2023-08-21T06:30:25;2.25;;;1.20;;
71790;SDS011;59638;52.126;5.434;2023-08-21T06:32:52;4.03;;;1.65;;
71790;SDS011;59638;52.126;5.434;2023-08-21T06:35:19;4.55;;;1.75;;
71790;SDS011;59638;52.126;5.434;2023-08-21T06:37:45;2.95;;;1.60;;
71790;SDS011;59638;52.126;5.434;2023-08-21T06:40:11;4.30;;;1.73;;
71790;SDS011;59638;52.126;5.434;2023-08-21T06:42:38;6.35;;;1.80;;
71790;SDS011;59638;52.126;5.434;2023-08-21T06:45:05;5.30;;;1.45;;
71790;SDS011;59638;52.126;5.434;2023-08-21T06:47:32;4.57;;;1.80;;
71790;SDS011;59638;52.126;5.434;2023-08-21T06:49:59;3.47;;;1.45;;
71790;SDS011;59638;52.126;5.434;2023-08-21T06:52:26;5.00;;;1.90;;
71790;SDS011;59638;52.126;5.434;2023-08-21T06:54:53;3.70;;;1.20;;
71790;SDS011;59638;52.126;5.434;2023-08-21T06:57:19;3.70;;;1.83;;
71790;SDS011;59638;52.126;5.434;2023-08-21T06:59:45;7.80;;;1.50;;
71790;SDS011;59638;52.126;5.434;2023-08-21T07:02:12;3.13;;;1.10;;
71790;SDS011;59638;52.126;5.434;2023-08-21T07:04:38;4.20;;;1.57;;
71790;SDS011;59638;52.126;5.434;2023-08-21T07:07:05;4.20;;;1.50;;
71790;SDS011;59638;52.126;5.434;2023-08-21T07:09:31;4.38;;;1.42;;
71790;SDS011;59638;52.126;5.434;2023-08-21T07:11:58;3.08;;;1.10;;
71790;SDS011;59638;52.126;5.434;2023-08-21T07:14:24;2.65;;;1.70;;
71790;SDS011;59638;52.126;5.434;2023-08-21T07:16:51;6.50;;;2.03;;
71790;SDS011;59638;52.126;5.434;2023-08-21T07:19:17;5.90;;;1.92;;
71790;SDS011;59638;52.126;5.434;2023-08-21T07:21:44;4.57;;;1.15;;
71790;SDS011;59638;52.126;5.434;2023-08-21T07:24:10;3.08;;;1.35;;
71790;SDS011;59638;52.126;5.434;2023-08-21T07:26:37;4.03;;;1.20;;
71790;SDS011;59638;52.126;5.434;2023-08-21T07:29:03;5.53;;;1.57;;
71790;SDS011;59638;52.126;5.434;2023-08-21T07:31:30;3.88;;;1.35;;
71790;SDS011;59638;52.126;5.434;2023-08-21T07:33:57;4.63;;;1.20;;
71790;SDS011;59638;52.126;5.434;2023-08-21T07:36:24;2.13;;;1.10;;
71790;SDS011;59638;52.126;5.434;2023-08-21T07:38:50;5.25;;;1.15;;
71790;SDS011;59638;52.126;5.434;2023-08-21T07:41:17;5.33;;;2.43;;
71790;SDS011;59638;52.126;5.434;2023-08-21T07:43:43;2.50;;;1.10;;
71790;SDS011;59638;52.126;5.434;2023-08-21T07:46:11;3.28;;;1.05;;
71790;SDS011;59638;52.126;5.434;2023-08-21T07:48:42;3.90;;;1.13;;
71790;SDS011;59638;52.126;5.434;2023-08-21T07:51:09;3.45;;;1.15;;
71790;SDS011;59638;52.126;5.434;2023-08-21T07:53:36;3.77;;;1.40;;
71790;SDS011;59638;52.126;5.434;2023-08-21T07:56:02;7.53;;;1.10;;
71790;SDS011;59638;52.126;5.434;2023-08-21T07:58:30;2.80;;;1.30;;
71790;SDS011;59638;52.126;5.434;2023-08-21T08:00:58;4.30;;;1.20;;
71790;SDS011;59638;52.126;5.434;2023-08-21T08:03:24;2.42;;;0.88;;
71790;SDS011;59638;52.126;5.434;2023-08-21T08:05:51;5.07;;;0.93;;
71790;SDS011;59638;52.126;5.434;2023-08-21T08:08:21;3.95;;;1.27;;
71790;SDS011;59638;52.126;5.434;2023-08-21T08:10:48;3.83;;;0.63;;
71790;SDS011;59638;52.126;5.434;2023-08-21T08:13:14;4.70;;;0.80;;
71790;SDS011;59638;52.126;5.434;2023-08-21T08:15:41;6.93;;;0.80;;
71790;SDS011;59638;52.126;5.434;2023-08-21T08:18:11;3.03;;;1.00;;
71790;SDS011;59638;52.126;5.434;2023-08-21T08:20:39;2.55;;;0.80;;
71790;SDS011;59638;52.126;5.434;2023-08-21T08:23:05;3.05;;;0.70;;
71790;SDS011;59638;52.126;5.434;2023-08-21T08:25:32;5.75;;;0.80;;
71790;SDS011;59638;52.126;5.434;2023-08-21T08:27:59;5.95;;;0.55;;
71790;SDS011;59638;52.126;5.434;2023-08-21T08:30:25;3.70;;;0.87;;
71790;SDS011;59638;52.126;5.434;2023-08-21T08:32:52;3.13;;;0.55;;
71790;SDS011;59638;52.126;5.434;2023-08-21T08:35:19;6.90;;;0.55;;
71790;SDS011;59638;52.126;5.434;2023-08-21T08:37:45;3.83;;;0.60;;
71790;SDS011;59638;52.126;5.434;2023-08-21T08:40:12;5.00;;;0.80;;
71790;SDS011;59638;52.126;5.434;2023-08-21T08:42:38;4.33;;;0.47;;
71790;SDS011;59638;52.126;5.434;2023-08-21T08:45:05;10.00;;;1.15;;
71790;SDS011;59638;52.126;5.434;2023-08-21T08:47:32;6.50;;;0.60;;
71790;SDS011;59638;52.126;5.434;2023-08-21T08:50:04;3.30;;;0.77;;
71790;SDS011;59638;52.126;5.434;2023-08-21T08:52:36;3.17;;;0.55;;
71790;SDS011;59638;52.126;5.434;2023-08-21T08:55:05;2.93;;;0.80;;
71790;SDS011;59638;52.126;5.434;2023-08-21T08:57:33;7.13;;;1.52;;
71790;SDS011;59638;52.126;5.434;2023-08-21T09:00:00;5.05;;;1.10;;
71790;SDS011;59638;52.126;5.434;2023-08-21T09:02:28;3.15;;;0.95;;
71790;SDS011;59638;52.126;5.434;2023-08-21T09:04:54;2.40;;;0.70;;
71790;SDS011;59638;52.126;5.434;2023-08-21T09:07:20;5.27;;;1.10;;
71790;SDS011;59638;52.126;5.434;2023-08-21T09:09:48;3.13;;;0.63;;
71790;SDS011;59638;52.126;5.434;2023-08-21T09:12:16;3.60;;;0.93;;
71790;SDS011;59638;52.126;5.434;2023-08-21T09:14:44;3.97;;;0.77;;
71790;SDS011;59638;52.126;5.434;2023-08-21T09:17:11;4.00;;;0.77;;
71790;SDS011;59638;52.126;5.434;2023-08-21T09:19:38;5.83;;;1.13;;
71790;SDS011;59638;52.126;5.434;2023-08-21T09:22:08;4.18;;;0.80;;
71790;SDS011;59638;52.126;5.434;2023-08-21T09:24:37;4.28;;;1.20;;
71790;SDS011;59638;52.126;5.434;2023-08-21T09:27:10;3.15;;;1.15;;
71790;SDS011;59638;52.126;5.434;2023-08-21T09:29:39;2.10;;;0.80;;
71790;SDS011;59638;52.126;5.434;2023-08-21T09:32:06;2.60;;;0.80;;
71790;SDS011;59638;52.126;5.434;2023-08-21T09:34:34;3.95;;;1.00;;
71790;SDS011;59638;52.126;5.434;2023-08-21T09:37:05;4.10;;;0.95;;
71790;SDS011;59638;52.126;5.434;2023-08-21T09:39:34;4.43;;;1.08;;
71790;SDS011;59638;52.126;5.434;2023-08-21T09:42:05;4.15;;;1.00;;
71790;SDS011;59638;52.126;5.434;2023-08-21T09:44:39;4.50;;;0.90;;
71790;SDS011;59638;52.126;5.434;2023-08-21T09:47:08;1.75;;;0.80;;
71790;SDS011;59638;52.126;5.434;2023-08-21T09:49:38;1.83;;;0.57;;
71790;SDS011;59638;52.126;5.434;2023-08-21T09:52:06;3.10;;;1.08;;
71790;SDS011;59638;52.126;5.434;2023-08-21T09:54:33;2.25;;;0.80;;
71790;SDS011;59638;52.126;5.434;2023-08-21T09:57:01;4.23;;;1.33;;
71790;SDS011;59638;52.126;5.434;2023-08-21T09:59:30;3.33;;;0.80;;
71790;SDS011;59638;52.126;5.434;2023-08-21T10:01:58;1.70;;;1.05;;
71790;SDS011;59638;52.126;5.434;2023-08-21T10:04:27;2.92;;;0.50;;
71790;SDS011;59638;52.126;5.434;2023-08-21T10:06:56;3.35;;;0.73;;
71790;SDS011;59638;52.126;5.434;2023-08-21T10:09:23;4.37;;;1.10;;
71790;SDS011;59638;52.126;5.434;2023-08-21T10:11:52;3.78;;;0.93;;
71790;SDS011;59638;52.126;5.434;2023-08-21T10:14:20;3.33;;;0.88;;
71790;SDS011;59638;52.126;5.434;2023-08-21T10:16:50;2.58;;;0.85;;
71790;SDS011;59638;52.126;5.434;2023-08-21T10:19:19;2.63;;;1.05;;
71790;SDS011;59638;52.126;5.434;2023-08-21T10:21:48;4.80;;;0.90;;
71790;SDS011;59638;52.126;5.434;2023-08-21T10:24:28;2.45;;;0.90;;
71790;SDS011;59638;52.126;5.434;2023-08-21T10:27:00;3.10;;;0.90;;
71790;SDS011;59638;52.126;5.434;2023-08-21T10:29:27;4.45;;;1.20;;
71790;SDS011;59638;52.126;5.434;2023-08-21T10:32:00;4.78;;;1.23;;
71790;SDS011;59638;52.126;5.434;2023-08-21T10:34:35;3.80;;;0.90;;
71790;SDS011;59638;52.126;5.434;2023-08-21T10:37:05;2.42;;;0.88;;
71790;SDS011;59638;52.126;5.434;2023-08-21T10:39:33;2.47;;;0.50;;
71790;SDS011;59638;52.126;5.434;2023-08-21T10:42:05;2.70;;;0.40;;
71790;SDS011;59638;52.126;5.434;2023-08-21T10:47:22;2.53;;;1.30;;
71790;SDS011;59638;52.126;5.434;2023-08-21T10:49:51;5.80;;;0.93;;
71790;SDS011;59638;52.126;5.434;2023-08-21T10:54:56;1.42;;;0.80;;
71790;SDS011;59638;52.126;5.434;2023-08-21T10:57:24;2.17;;;1.35;;
71790;SDS011;59638;52.126;5.434;2023-08-21T11:02:18;2.15;;;0.73;;
71790;SDS011;59638;52.126;5.434;2023-08-21T11:04:45;5.20;;;0.80;;
71790;SDS011;59638;52.126;5.434;2023-08-21T11:07:12;1.42;;;0.40;;
71790;SDS011;59638;52.126;5.434;2023-08-21T11:09:41;1.40;;;0.77;;
71790;SDS011;59638;52.126;5.434;2023-08-21T11:12:12;2.67;;;0.60;;
71790;SDS011;59638;52.126;5.434;2023-08-21T11:14:41;1.95;;;0.50;;
71790;SDS011;59638;52.126;5.434;2023-08-21T11:17:08;2.50;;;0.75;;
71790;SDS011;59638;52.126;5.434;2023-08-21T11:19:36;3.55;;;0.95;;
71790;SDS011;59638;52.126;5.434;2023-08-21T11:22:03;1.45;;;0.65;;
71790;SDS011;59638;52.126;5.434;2023-08-21T11:24:38;2.70;;;0.47;;
71790;SDS011;59638;52.126;5.434;2023-08-21T11:27:16;2.47;;;0.85;;
71790;SDS011;59638;52.126;5.434;2023-08-21T11:29:44;2.28;;;0.80;;
71790;SDS011;59638;52.126;5.434;2023-08-21T11:32:13;1.08;;;0.65;;
71790;SDS011;59638;52.126;5.434;2023-08-21T11:34:42;1.48;;;0.60;;
71790;SDS011;59638;52.126;5.434;2023-08-21T11:37:13;2.50;;;0.67;;
71790;SDS011;59638;52.126;5.434;2023-08-21T11:39:41;2.33;;;0.85;;
71790;SDS011;59638;52.126;5.434;2023-08-21T11:42:09;3.53;;;0.75;;
71790;SDS011;59638;52.126;5.434;2023-08-21T11:44:55;1.85;;;0.90;;
71790;SDS011;59638;52.126;5.434;2023-08-21T11:47:23;3.83;;;0.80;;
71790;SDS011;59638;52.126;5.434;2023-08-21T11:49:49;1.40;;;0.90;;
71790;SDS011;59638;52.126;5.434;2023-08-21T11:52:18;2.95;;;0.60;;
71790;SDS011;59638;52.126;5.434;2023-08-21T11:54:49;1.40;;;0.57;;
71790;SDS011;59638;52.126;5.434;2023-08-21T11:57:17;2.42;;;0.85;;
71790;SDS011;59638;52.126;5.434;2023-08-21T12:00:02;1.35;;;0.98;;
71790;SDS011;59638;52.126;5.434;2023-08-21T12:02:31;2.07;;;0.87;;
71790;SDS011;59638;52.126;5.434;2023-08-21T12:05:01;3.67;;;1.00;;
71790;SDS011;59638;52.126;5.434;2023-08-21T12:07:34;1.08;;;0.50;;
71790;SDS011;59638;52.126;5.434;2023-08-21T12:10:00;2.88;;;1.02;;
71790;SDS011;59638;52.126;5.434;2023-08-21T12:12:27;1.83;;;1.10;;
71790;SDS011;59638;52.126;5.434;2023-08-21T12:14:54;2.90;;;0.93;;
71790;SDS011;59638;52.126;5.434;2023-08-21T12:17:20;3.70;;;1.65;;
71790;SDS011;59638;52.126;5.434;2023-08-21T12:19:47;1.83;;;0.95;;
71790;SDS011;59638;52.126;5.434;2023-08-21T12:22:13;2.03;;;0.90;;
71790;SDS011;59638;52.126;5.434;2023-08-21T12:24:40;1.25;;;0.98;;
71790;SDS011;59638;52.126;5.434;2023-08-21T12:27:06;1.33;;;0.90;;
71790;SDS011;59638;52.126;5.434;2023-08-21T12:29:33;3.00;;;0.95;;
71790;SDS011;59638;52.126;5.434;2023-08-21T12:32:00;1.75;;;1.08;;
71790;SDS011;59638;52.126;5.434;2023-08-21T12:34:26;1.55;;;0.85;;
71790;SDS011;59638;52.126;5.434;2023-08-21T12:36:53;3.88;;;1.60;;
71790;SDS011;59638;52.126;5.434;2023-08-21T12:39:19;1.73;;;1.23;;
71790;SDS011;59638;52.126;5.434;2023-08-21T12:41:46;4.93;;;1.15;;
71790;SDS011;59638;52.126;5.434;2023-08-21T12:44:12;2.15;;;0.80;;
71790;SDS011;59638;52.126;5.434;2023-08-21T12:46:39;2.13;;;0.90;;
71790;SDS011;59638;52.126;5.434;2023-08-21T12:49:05;2.45;;;1.05;;
71790;SDS011;59638;52.126;5.434;2023-08-21T12:51:32;3.63;;;1.07;;
71790;SDS011;59638;52.126;5.434;2023-08-21T12:53:58;2.13;;;1.10;;
71790;SDS011;59638;52.126;5.434;2023-08-21T12:56:25;1.83;;;0.80;;
71790;SDS011;59638;52.126;5.434;2023-08-21T12:58:52;2.30;;;1.15;;
71790;SDS011;59638;52.126;5.434;2023-08-21T13:01:18;1.67;;;0.80;;
71790;SDS011;59638;52.126;5.434;2023-08-21T13:03:45;2.70;;;0.80;;
71790;SDS011;59638;52.126;5.434;2023-08-21T13:06:13;1.75;;;0.52;;
71790;SDS011;59638;52.126;5.434;2023-08-21T13:08:40;1.92;;;0.47;;
71790;SDS011;59638;52.126;5.434;2023-08-21T13:11:07;1.85;;;0.47;;
71790;SDS011;59638;52.126;5.434;2023-08-21T13:13:36;2.50;;;0.50;;
71790;SDS011;59638;52.126;5.434;2023-08-21T13:16:02;1.87;;;0.37;;
71790;SDS011;59638;52.126;5.434;2023-08-21T13:18:29;1.33;;;0.40;;
71790;SDS011;59638;52.126;5.434;2023-08-21T13:20:56;2.17;;;0.80;;
71790;SDS011;59638;52.126;5.434;2023-08-21T13:23:22;2.15;;;0.50;;
71790;SDS011;59638;52.126;5.434;2023-08-21T13:25:49;1.55;;;0.70;;
71790;SDS011;59638;52.126;5.434;2023-08-21T13:28:16;3.67;;;0.70;;
71790;SDS011;59638;52.126;5.434;2023-08-21T13:30:42;12.15;;;1.10;;
71790;SDS011;59638;52.126;5.434;2023-08-21T13:33:08;3.17;;;0.70;;
71790;SDS011;59638;52.126;5.434;2023-08-21T13:35:35;1.80;;;0.60;;
71790;SDS011;59638;52.126;5.434;2023-08-21T13:38:01;2.03;;;0.43;;
71790;SDS011;59638;52.126;5.434;2023-08-21T13:40:29;5.33;;;0.50;;
71790;SDS011;59638;52.126;5.434;2023-08-21T13:42:56;3.50;;;0.40;;
71790;SDS011;59638;52.126;5.434;2023-08-21T13:45:28;2.55;;;0.57;;
71790;SDS011;59638;52.126;5.434;2023-08-21T13:47:54;1.23;;;0.30;;
71790;SDS011;59638;52.126;5.434;2023-08-21T13:50:21;1.88;;;0.50;;
71790;SDS011;59638;52.126;5.434;2023-08-21T13:52:48;1.50;;;0.40;;
71790;SDS011;59638;52.126;5.434;2023-08-21T13:55:14;3.05;;;0.75;;
71790;SDS011;59638;52.126;5.434;2023-08-21T13:57:41;2.80;;;0.50;;
71790;SDS011;59638;52.126;5.434;2023-08-21T14:00:10;1.67;;;0.40;;
71790;SDS011;59638;52.126;5.434;2023-08-21T14:02:43;2.15;;;0.30;;
71790;SDS011;59638;52.126;5.434;2023-08-21T14:05:10;1.03;;;0.40;;
71790;SDS011;59638;52.126;5.434;2023-08-21T14:07:37;1.38;;;0.40;;
71790;SDS011;59638;52.126;5.434;2023-08-21T14:10:06;1.90;;;0.30;;
71790;SDS011;59638;52.126;5.434;2023-08-21T14:12:33;2.78;;;0.68;;
71790;SDS011;59638;52.126;5.434;2023-08-21T14:14:59;3.95;;;0.40;;
71790;SDS011;59638;52.126;5.434;2023-08-21T14:17:26;2.40;;;0.40;;
71790;SDS011;59638;52.126;5.434;2023-08-21T14:19:54;1.80;;;0.43;;
71790;SDS011;59638;52.126;5.434;2023-08-21T14:22:20;2.15;;;0.40;;
71790;SDS011;59638;52.126;5.434;2023-08-21T14:24:47;0.90;;;0.30;;
71790;SDS011;59638;52.126;5.434;2023-08-21T14:27:13;3.95;;;0.30;;
71790;SDS011;59638;52.126;5.434;2023-08-21T14:29:41;6.17;;;0.37;;
71790;SDS011;59638;52.126;5.434;2023-08-21T14:32:08;3.03;;;0.30;;
71790;SDS011;59638;52.126;5.434;2023-08-21T14:34:35;1.15;;;0.35;;
71790;SDS011;59638;52.126;5.434;2023-08-21T14:37:02;1.52;;;0.30;;
71790;SDS011;59638;52.126;5.434;2023-08-21T14:39:30;2.55;;;0.22;;
71790;SDS011;59638;52.126;5.434;2023-08-21T14:41:57;2.17;;;0.50;;
71790;SDS011;59638;52.126;5.434;2023-08-21T14:44:24;2.53;;;0.20;;
71790;SDS011;59638;52.126;5.434;2023-08-21T14:46:52;1.60;;;0.25;;
71790;SDS011;59638;52.126;5.434;2023-08-21T14:49:22;1.77;;;0.40;;
71790;SDS011;59638;52.126;5.434;2023-08-21T14:51:49;3.28;;;0.50;;
71790;SDS011;59638;52.126;5.434;2023-08-21T14:54:16;1.67;;;0.60;;
71790;SDS011;59638;52.126;5.434;2023-08-21T14:56:42;1.25;;;0.40;;
71790;SDS011;59638;52.126;5.434;2023-08-21T14:59:09;1.52;;;0.22;;
71790;SDS011;59638;52.126;5.434;2023-08-21T15:01:39;1.98;;;0.30;;